Edgewood, Maryland
Current Conditions -  °F | °C
As of 11:52 AM on Thursday 30 Oct 2014 (Local Time) from KAPG Reporting Station
Scattered Clouds Scattered Clouds  
Wind Chill: 57°   Ceiling: Unl
Heat Index: 57°   Visibility: 7mi
Dew Point: 41°   Wind: 12mph
Humidity: 55%   Direction: 330°NNW
Pressure: 30.04"   Gusts: NA
Location:  39.43°N, 76.3°W
Report Text: KAPG 301552Z 33010KT 7SM SCT020 14/05 A3004
Loading
Personal Weather Stations






























Interactive Weather Map
Tropical Storm Tracking
New forecast layout! Learn more

10-Day Weather Forecast

Advertisements
Track Severe Weather on mobile